Aktualne dane pomiarowe

Uwaga, wersja testowa! Automatyczne pobieranie danych za pomocą narzędzi lub skryptów to umożliwiających jest zabronione.

Dane meteo z obszaru Polski uzyskane na podstawie depesz SYNOP pobieranych co godzinę z NWS. Najedź myszką na symbol przedstawiony w tabeli, aby uzyskać informacje co do jego znaczenia. Prosimy pamiętać, że to testowa wersja strony, która jeszcze nie jest ukończona. Stworzono również jest krótki FAQ dotyczący korzystania z tej podstrony Anomalie temperatury w chwili obecnej odniesione są do okresu referencyjnego 1951-2016. Okres ten będzie później zmieniony na 1981-2010. Kliknij ikonę aby pobrać plik CSV. Kliknij ikonę aby wygenerować mapę synoptyczną dla danego terminu.

Wybierz Datę:    

        

Opole (12530)

Dane terminowe dla wybranej stacji. Kliknij datę, aby otrzymać dane z tego terminu dla wszystkich stacji.

TemperaturaZachmurzenieWiatrCiśnienieOpadyPogoda
 Data t td wb tx tn tg rh  Nt Nl Cl Cm Ch ws wd g1 g2 wx mslp ppp ch 24h 12h t ww ww w1 w2  
2019-07-20 23:00:00 18.4 15.0 16.1--- 8120.0wx-wxwx1wx--11015.2 995.9 0.0---------
2019-07-20 22:00:00 19.5 14.8 16.3--- 7420.0wx-wxwx1wx--11015.3 996.1 0.4---------
2019-07-20 21:00:00 21.3 14.3 16.8--- 6420.0wx-wx1wx---1015.2 996.1 0.7---------
2019-07-20 20:00:00 23.1 14.2 17.4--- 5720.0wx-wx1wx--11014.9 995.9 0.5---------
2019-07-20 19:00:00 25.6 13.9 18.3--- 4830.0wxwxwxwx2wx--21014.5 995.7 0.0---------
2019-07-20 18:00:00 28.3 12.7 18.7 29.9 19.1- 3830.0wxwxwxwx1wx--11014.1 995.4 -0.6- 0.012------
2019-07-20 17:00:00 29.0 12.5 18.9--- 3630.0wxwxwxwxwx1wx--11014.0 995.4 -0.9---------
2019-07-20 16:00:00 29.0 12.9 19.1--- 3720.0wxwxwxwxwx1wx--11014.3 995.7 -0.9---------
2019-07-20 15:00:00 28.9 13.6 19.4--- 3930.0wxwxwxwx1wx---1014.6 996.0 -0.7---------
2019-07-20 14:00:00 29.0 14.1 19.7--- 4030.0wxwxwxwx1wx--11014.9 996.3 -1.1---------
2019-07-20 13:00:00 28.0 13.6 19.1--- 4130.0wxwxwxwxwx2wx--21015.3 996.6 -0.9---------
2019-07-20 12:00:00 28.4 14.0 19.4--- 4130.0wxwxwxwxwx2wx--21015.4 996.7 -1.1- 0.06------
2019-07-20 11:00:00 26.7 14.2 18.8--- 4630.0wxwxwxwx2wx--21016.2 997.4 -0.5---------
2019-07-20 10:00:00 26.3 14.8 19.0--- 4930.0wxwxwxwx1wx--11016.3 997.5 -0.3---------
2019-07-20 09:00:00 24.9 14.2 18.1--- 5130.0wxwxwxwx2wx--21016.7 997.8 0.0---------
2019-07-20 08:00:00 23.5 14.6 17.8--- 5730.0wxwxwxwx1wx--11016.9 997.9 0.5---------
2019-07-20 07:00:00 21.6 15.1 17.3--- 6730.0wx-wxwx1wx--11016.9 997.8 0.5---------
2019-07-20 06:00:00 19.1 14.7 16.1 21.6 15.5 15 7620.0wx-wx1wx--11017.1 997.8 0.5 0.1 0.012----- 7.4
2019-07-20 05:00:00 17.6 15.3 16.0--- 8620.0wx-wx1wx---1016.8 997.4 0.4---------
2019-07-20 04:00:00 16.1 15.1 15.4--- 9420.0wx-wx1wx--11016.8 997.3 0.6---------
2019-07-20 03:00:00 16.2 15.2 15.5--- 9420.0wx-wx1wx--11016.8 997.3 0.5---------
2019-07-20 02:00:00 16.0 15.0 15.3--- 9420.0wx-wx1wx--11016.5 997.0 0.4---------
2019-07-20 01:00:00 15.6 14.7 14.9--- 9420.0wx-wx1wx--11016.2 996.7 0.0---------
2019-07-20 00:00:00 16.6 15.6 15.9--- 9420.0wx-wxwx1wx--11016.2 996.8 0.2- 0.06------
2019-07-19 23:00:00 16.9 15.7 16.0--- 9320.0wx-wx1wx---1016.0 996.6 0.0---------
2019-07-19 22:00:00 18.3 16.0 16.7--- 8620.0wx-wx1wx--11016.0 996.7 0.4---------
2019-07-19 21:00:00 19.3 16.1 17.1--- 8220.0wx-wx1wx--11015.9 996.6 0.7---------
2019-07-19 20:00:00 20.3 15.0 16.8--- 7220.0wxwxwxwx1wx--11015.8 996.6 1.1---------
2019-07-19 19:00:00 20.9 14.4 16.7--- 6620.0wxwxwxwx2wx--21015.4 996.3 0.7---------
2019-07-19 18:00:00 21.6 15.3 17.4 27.4 18.6- 6720.0wxwxwx2wx-821015.0 995.9 0.8--12wx-w1--
2019-07-19 17:00:00 22.5 14.4 17.3--- 6025.0wxwxwxwx1wx-811014.5 995.5 0.3---wx---
2019-07-19 16:00:00 24.0 13.6 17.5--- 5225.0wxwxwxwx3wx--31014.5 995.6 0.6---------
2019-07-19 15:00:00 24.9 12.9 17.5--- 4725.0wxwxwxwx3wx--31014.0 995.1 0.1---wx-w1w2--
2019-07-19 14:00:00 25.1 12.4 17.3--- 4525.0wxwxwxwx2wx--21014.1 995.2 0.7---wx-w1--
2019-07-19 13:00:00 24.9 10.5 16.4--- 4020.0wxwxwx2wx--21013.9 995.0 0.2---wx-w1w2--
2019-07-19 12:00:00 24.4 10.7 16.3--- 4220.0wxwxwx2wx-1021013.9 995.0 0.2--6wx-w1--
2019-07-19 11:00:00 26.9 10.7 17.3--- 3630.0wxwxwxwx2wx--21013.2 994.5 -0.2---------
2019-07-19 10:00:00 25.4 11.3 16.9--- 4130.0wxwxwxwx1wx--11013.6 994.8 0.0---------
2019-07-19 09:00:00 26.3 9.7 16.6--- 3530.0wxwxwxwxwx2wx--21013.6 994.8 -0.1---------
2019-07-19 08:00:00 24.7 11.4 16.7--- 4330.0wx-wxwx2wx--21013.6 994.7 -0.1---------
2019-07-19 07:00:00 22.3 11.5 15.7--- 5030.0wx-wxwx2wx--21013.8 994.8 0.1---------
2019-07-19 06:00:00 18.6 11.5 14.2 24.6 11.5 11 6330.0wx-wxwx1wx--11014.2 994.9 0.3- 0.012----- 13.2
2019-07-19 05:00:00 14.7 10.6 12.1--- 7620.0wx-wxwx1wx--11014.3 994.8 0.2----22----
2019-07-19 04:00:00 12.2 10.4 11.0--- 8920.0wx-wxwx1wx--11014.4 994.7 0.0----22----
2019-07-19 03:00:00 11.5 9.5 10.1--- 8820.0wx-wxwx1wx--11014.4 994.6 0.0---------
2019-07-19 02:00:00 12.1 9.8 10.6--- 8620.0wx-wxwx1wx--11014.3 994.6 -0.2---------
2019-07-19 01:00:00 12.8 9.7 10.8--- 8120.0wx-wx1wx--11014.4 994.7 0.2---------
2019-07-19 00:00:00 12.9 10.4 11.2--- 8520.0wx-wx1wx--11014.3 994.6 0.2- 0.06------
1.1 ms

 

Print Friendly, PDF & Email